Crabb, Texas
Current Conditions -  °F | °C
As of 2:53 PM on Thursday 23 Oct 2014 (Local Time) from KSGR Reporting Station
Clear Clear  
Wind Chill: 79°   Ceiling: Unl
Heat Index: 80°   Visibility: 10mi
Dew Point: 55°   Wind: 8mph
Humidity: 44%   Direction: 50°NE
Pressure: 30.06"   Gusts: NA
Location:  29.4892°N, 95.6914°W
Report Text: KSGR 231953Z AUTO 05007KT 10SM CLR 26/13 A3006 RMK AO2 SLP181 T02610128
Loading
Personal Weather Stations






























Interactive Weather Map
Tropical Storm Tracking
New forecast layout! Learn more

10-Day Weather Forecast

Advertisements
Track Severe Weather on mobile